createdAt,value
2019-03-19T00:01:15.892Z,10.50
2019-03-19T00:03:43.972Z,12.05
2019-03-19T00:06:12.054Z,9.70
2019-03-19T00:08:40.049Z,8.40
2019-03-19T00:11:08.063Z,8.43
2019-03-19T00:13:36.141Z,10.50
2019-03-19T00:16:04.278Z,11.22
2019-03-19T00:18:32.269Z,10.75
2019-03-19T00:21:00.308Z,10.00
2019-03-19T00:23:28.398Z,11.73
2019-03-19T00:25:56.293Z,9.58
2019-03-19T00:28:24.407Z,8.40
2019-03-19T00:30:52.454Z,11.43
2019-03-19T00:33:20.627Z,13.08
2019-03-19T00:35:54.405Z,9.10
2019-03-19T00:38:22.618Z,12.73
2019-03-19T00:40:50.660Z,10.35
2019-03-19T00:43:18.580Z,9.35
2019-03-19T00:45:46.729Z,7.50
2019-03-19T00:48:14.752Z,9.60
2019-03-19T00:50:42.966Z,12.23
2019-03-19T00:53:11.003Z,7.60
2019-03-19T00:55:40.921Z,9.25
2019-03-19T00:58:09.085Z,6.55
2019-03-19T01:00:37.299Z,7.15
2019-03-19T01:03:05.331Z,10.75
2019-03-19T01:05:33.407Z,7.25
2019-03-19T01:08:01.495Z,10.40
2019-03-19T01:10:29.795Z,8.90
2019-03-19T01:12:57.730Z,7.25
2019-03-19T01:15:25.842Z,11.30
2019-03-19T01:17:53.778Z,10.08
2019-03-19T01:20:21.860Z,11.03
2019-03-19T01:22:49.886Z,12.20
2019-03-19T01:25:18.785Z,11.88
2019-03-19T01:27:47.006Z,9.03
2019-03-19T01:30:15.119Z,9.23
2019-03-19T01:32:43.189Z,8.53
2019-03-19T01:35:11.361Z,11.22
2019-03-19T01:37:39.513Z,7.90
2019-03-19T01:40:07.680Z,8.78
2019-03-19T01:42:35.750Z,7.55
2019-03-19T01:45:05.625Z,7.62
2019-03-19T01:47:33.630Z,7.70
2019-03-19T01:50:01.731Z,7.72
2019-03-19T01:52:29.778Z,8.83
2019-03-19T01:54:57.885Z,7.45
2019-03-19T01:57:25.904Z,10.32
2019-03-19T01:59:54.028Z,8.18
2019-03-19T02:02:22.066Z,9.00
2019-03-19T02:04:50.152Z,15.63
2019-03-19T02:07:18.160Z,8.53
2019-03-19T02:09:46.257Z,7.97
2019-03-19T02:12:14.311Z,4.87
2019-03-19T02:14:42.421Z,6.22
2019-03-19T02:17:12.552Z,6.35
2019-03-19T02:19:40.920Z,9.25
2019-03-19T02:22:08.949Z,10.35
2019-03-19T02:24:37.087Z,6.20
2019-03-19T02:27:05.202Z,10.50
2019-03-19T02:29:33.310Z,7.17
2019-03-19T02:32:01.474Z,7.72
2019-03-19T02:34:29.290Z,6.40
2019-03-19T02:36:57.490Z,8.65
2019-03-19T02:39:25.567Z,9.18
2019-03-19T02:41:53.791Z,12.20
2019-03-19T02:44:23.876Z,15.80
2019-03-19T02:46:51.905Z,14.95
2019-03-19T02:49:19.815Z,17.30
2019-03-19T02:51:47.891Z,10.43
2019-03-19T02:54:15.995Z,15.98
2019-03-19T02:56:44.107Z,12.20
2019-03-19T02:59:12.150Z,13.62
2019-03-19T03:01:40.227Z,18.27
2019-03-19T03:04:08.252Z,14.47
2019-03-19T03:06:36.304Z,12.93
2019-03-19T03:09:06.059Z,9.48
2019-03-19T03:11:34.153Z,8.15
2019-03-19T03:14:02.116Z,11.60
2019-03-19T03:16:30.189Z,11.95
2019-03-19T03:18:58.100Z,7.47
2019-03-19T03:21:26.095Z,8.95
2019-03-19T03:23:54.156Z,7.62
2019-03-19T03:26:22.294Z,6.72
2019-03-19T03:28:50.223Z,11.80
2019-03-19T03:31:18.234Z,8.25
2019-03-19T03:33:46.739Z,10.18
2019-03-19T03:36:14.819Z,7.12
2019-03-19T03:38:42.876Z,8.68
2019-03-19T03:41:10.836Z,11.95
2019-03-19T03:43:38.778Z,7.75
2019-03-19T03:46:16.471Z,7.62
2019-03-19T03:48:45.023Z,11.55
2019-03-19T03:51:13.130Z,9.33
2019-03-19T03:53:41.154Z,8.93
2019-03-19T03:56:09.224Z,10.00
2019-03-19T03:58:37.178Z,12.25
2019-03-19T04:01:05.285Z,8.33
2019-03-19T04:03:33.318Z,12.40
2019-03-19T04:06:01.524Z,9.60
2019-03-19T04:08:29.579Z,10.53
2019-03-19T04:10:57.681Z,15.53
2019-03-19T04:13:25.629Z,14.23
2019-03-19T04:15:53.731Z,9.13
2019-03-19T04:18:21.857Z,7.62
2019-03-19T04:20:50.750Z,9.95
2019-03-19T04:23:18.754Z,8.48
2019-03-19T04:25:46.908Z,15.95
2019-03-19T04:28:15.013Z,9.05
2019-03-19T04:30:43.055Z,11.35
2019-03-19T04:33:11.122Z,11.10
2019-03-19T04:35:41.965Z,11.93
2019-03-19T04:38:09.192Z,8.95
2019-03-19T04:40:37.814Z,11.75
2019-03-19T04:43:05.936Z,11.63
2019-03-19T04:45:33.970Z,10.85
2019-03-19T04:48:03.609Z,12.90
2019-03-19T04:50:31.737Z,10.95
2019-03-19T04:52:59.834Z,15.05
2019-03-19T04:55:28.475Z,11.60
2019-03-19T04:57:56.474Z,20.37
2019-03-19T05:00:24.521Z,11.20
2019-03-19T05:02:52.524Z,12.18
2019-03-19T05:05:20.569Z,13.48
2019-03-19T05:07:48.650Z,11.85
2019-03-19T05:10:16.695Z,12.23
2019-03-19T05:12:44.881Z,12.00
2019-03-19T05:15:12.912Z,12.65
2019-03-19T05:17:40.910Z,15.10
2019-03-19T05:20:09.379Z,8.75
2019-03-19T05:22:37.481Z,10.10
2019-03-19T05:25:05.624Z,8.78
2019-03-19T05:27:37.730Z,14.98
2019-03-19T05:30:04.810Z,11.53
2019-03-19T05:32:32.914Z,9.80
2019-03-19T05:35:00.842Z,11.97
2019-03-19T05:37:30.804Z,10.78
2019-03-19T05:39:58.880Z,10.30
2019-03-19T05:42:26.912Z,16.85
2019-03-19T05:44:54.975Z,8.43
2019-03-19T05:47:23.073Z,12.68
2019-03-19T05:49:50.987Z,10.93
2019-03-19T05:52:18.970Z,14.15
2019-03-19T05:54:46.911Z,12.93
2019-03-19T05:57:14.928Z,14.87
2019-03-19T05:59:42.889Z,16.15
2019-03-19T06:02:10.941Z,13.28
2019-03-19T06:04:39.001Z,14.75
2019-03-19T06:07:07.088Z,13.98
2019-03-19T06:09:35.157Z,18.85
2019-03-19T06:12:04.135Z,16.70
2019-03-19T06:14:32.178Z,11.65
2019-03-19T06:17:00.185Z,11.43
2019-03-19T06:19:28.225Z,12.90
2019-03-19T06:21:56.846Z,8.95
2019-03-19T06:24:25.016Z,16.10
2019-03-19T06:26:52.971Z,17.70
2019-03-19T06:29:21.125Z,13.88
2019-03-19T06:31:49.133Z,14.35
2019-03-19T06:34:17.448Z,13.48
2019-03-19T06:36:46.364Z,10.63
2019-03-19T06:39:14.604Z,15.78
2019-03-19T06:41:42.503Z,11.15
2019-03-19T06:44:10.430Z,11.30
2019-03-19T06:46:38.488Z,17.98
2019-03-19T06:49:06.530Z,14.87
2019-03-19T06:51:34.584Z,20.32
2019-03-19T06:54:02.659Z,15.90
2019-03-19T06:56:30.695Z,19.23
2019-03-19T06:58:58.573Z,14.35
2019-03-19T07:01:26.594Z,15.20
2019-03-19T07:03:54.695Z,13.95
2019-03-19T07:06:24.823Z,14.23
2019-03-19T07:08:52.739Z,16.80
2019-03-19T07:11:22.573Z,17.75
2019-03-19T07:13:50.889Z,9.90
2019-03-19T07:16:18.910Z,20.32
2019-03-19T07:18:47.042Z,14.43
2019-03-19T07:21:16.128Z,19.45
2019-03-19T07:23:44.300Z,13.70
2019-03-19T07:26:13.038Z,14.23
2019-03-19T07:28:43.838Z,11.97
2019-03-19T07:31:11.777Z,16.48
2019-03-19T07:33:39.795Z,27.40
2019-03-19T07:36:07.821Z,13.78
2019-03-19T07:38:36.145Z,11.30
2019-03-19T07:41:04.215Z,14.13
2019-03-19T07:43:32.867Z,11.38
2019-03-19T07:46:00.938Z,12.88
2019-03-19T07:48:29.081Z,9.73
2019-03-19T07:50:57.047Z,12.53
2019-03-19T07:53:25.183Z,9.35
2019-03-19T07:55:53.688Z,17.55
2019-03-19T07:58:32.704Z,10.08
2019-03-19T08:00:51.831Z,10.05
2019-03-19T08:03:19.978Z,10.13
2019-03-19T08:05:48.005Z,7.50
2019-03-19T08:08:16.109Z,9.45
2019-03-19T08:10:44.170Z,10.48
2019-03-19T08:13:12.313Z,11.83
2019-03-19T08:15:40.384Z,6.28
2019-03-19T08:18:08.351Z,10.43
2019-03-19T08:20:36.357Z,8.13
2019-03-19T08:23:04.337Z,13.10
2019-03-19T08:25:33.097Z,10.00
2019-03-19T08:28:01.279Z,8.10
2019-03-19T08:30:29.445Z,4.55
2019-03-19T08:32:57.480Z,3.87
2019-03-19T08:35:25.570Z,4.75
2019-03-19T08:37:53.694Z,8.30
2019-03-19T08:40:23.013Z,7.50
2019-03-19T08:42:51.069Z,7.58
2019-03-19T08:45:19.190Z,6.25
2019-03-19T08:47:48.788Z,7.03
2019-03-19T08:50:17.032Z,5.90
2019-03-19T08:52:45.071Z,5.70
2019-03-19T08:55:13.223Z,7.00
2019-03-19T08:57:44.552Z,8.95
2019-03-19T09:00:15.962Z,7.08
2019-03-19T09:02:43.935Z,7.50
2019-03-19T09:05:12.235Z,7.67
2019-03-19T09:07:40.321Z,6.75
2019-03-19T09:10:09.148Z,8.20
2019-03-19T09:12:38.124Z,7.00
2019-03-19T09:15:07.946Z,8.18
2019-03-19T09:17:36.391Z,6.37
2019-03-19T09:20:05.800Z,9.93
2019-03-19T09:22:34.281Z,9.10
2019-03-19T09:25:02.378Z,8.90
2019-03-19T09:27:30.421Z,111.80
2019-03-19T09:29:58.619Z,8.30
2019-03-19T09:32:26.583Z,7.80
2019-03-19T09:34:54.780Z,8.50
2019-03-19T09:37:22.819Z,7.03
2019-03-19T09:39:51.576Z,6.47
2019-03-19T09:42:19.605Z,12.70
2019-03-19T09:44:57.967Z,10.28
2019-03-19T09:47:17.676Z,7.00
2019-03-19T09:49:48.732Z,6.40
2019-03-19T09:52:16.693Z,6.37
2019-03-19T09:54:44.797Z,9.75
2019-03-19T09:57:13.737Z,11.73
2019-03-19T09:59:44.526Z,7.37
2019-03-19T10:02:12.102Z,9.43
2019-03-19T10:04:40.208Z,9.95
2019-03-19T10:07:08.884Z,4.90
2019-03-19T10:09:37.004Z,7.67
2019-03-19T10:12:05.123Z,10.80
2019-03-19T10:14:33.340Z,12.82
2019-03-19T10:17:01.474Z,15.83
2019-03-19T10:19:29.577Z,12.00
2019-03-19T10:21:57.659Z,5.87
2019-03-19T10:24:25.718Z,12.15
2019-03-19T10:26:53.862Z,11.25
2019-03-19T10:29:21.900Z,9.40
2019-03-19T10:31:50.027Z,7.17
2019-03-19T10:34:18.122Z,9.98
2019-03-19T10:36:46.206Z,11.47
2019-03-19T10:39:14.268Z,6.97
2019-03-19T10:41:42.349Z,5.03
2019-03-19T10:44:10.375Z,6.45
2019-03-19T10:46:38.459Z,6.53
2019-03-19T10:49:06.463Z,7.60
2019-03-19T10:51:35.260Z,4.80
2019-03-19T10:54:03.524Z,5.70
2019-03-19T10:56:31.648Z,6.55
2019-03-19T10:58:59.697Z,8.40
2019-03-19T11:01:27.818Z,6.43
2019-03-19T11:03:55.957Z,7.23
2019-03-19T11:06:24.151Z,9.08
2019-03-19T11:08:52.217Z,74.67
2019-03-19T11:11:20.328Z,169.80
2019-03-19T11:13:48.654Z,63.47
2019-03-19T11:16:16.680Z,103.30
2019-03-19T11:18:44.731Z,9.60
2019-03-19T11:21:12.841Z,7.08
2019-03-19T11:23:40.817Z,9.80
2019-03-19T11:26:08.947Z,9.13
2019-03-19T11:28:37.108Z,7.10
2019-03-19T11:31:05.532Z,8.70
2019-03-19T11:33:33.558Z,13.47
2019-03-19T11:36:01.652Z,3.40
2019-03-19T11:38:29.472Z,12.27
2019-03-19T11:40:57.654Z,9.40
2019-03-19T11:43:25.695Z,9.77
2019-03-19T11:45:53.879Z,4.17
2019-03-19T11:48:21.928Z,6.47
2019-03-19T11:50:50.417Z,5.13
2019-03-19T11:53:18.458Z,6.43
2019-03-19T11:55:46.576Z,7.73
2019-03-19T11:58:14.574Z,4.43
2019-03-19T12:00:45.149Z,7.50
2019-03-19T12:03:16.406Z,6.73
2019-03-19T12:05:43.239Z,9.10
2019-03-19T12:08:15.542Z,8.73
2019-03-19T12:10:43.626Z,8.45
2019-03-19T12:13:12.547Z,6.37
2019-03-19T12:15:40.600Z,9.57
2019-03-19T12:18:09.224Z,6.97
2019-03-19T12:20:37.316Z,8.70
2019-03-19T12:23:05.867Z,7.63
2019-03-19T12:25:33.977Z,8.23
2019-03-19T12:28:02.309Z,5.43
2019-03-19T12:30:30.429Z,8.73
2019-03-19T12:32:58.418Z,6.60
2019-03-19T12:35:26.537Z,6.90
2019-03-19T12:37:54.704Z,7.13
2019-03-19T12:40:22.807Z,4.50
2019-03-19T12:42:50.959Z,5.53
2019-03-19T12:45:19.537Z,11.53
2019-03-19T12:47:47.718Z,6.40
2019-03-19T12:50:16.156Z,5.43
2019-03-19T12:52:44.234Z,5.87
2019-03-19T12:55:12.295Z,6.33
2019-03-19T12:57:40.448Z,8.47
2019-03-19T13:00:19.158Z,8.13
2019-03-19T13:02:47.684Z,4.60
2019-03-19T13:05:15.802Z,6.07
2019-03-19T13:07:44.012Z,12.33
2019-03-19T13:10:13.945Z,6.40
2019-03-19T13:12:42.637Z,4.53
2019-03-19T13:15:11.263Z,5.53
2019-03-19T13:17:39.538Z,6.37
2019-03-19T13:20:08.682Z,5.60
2019-03-19T13:22:36.818Z,7.33
2019-03-19T13:25:05.282Z,7.60
2019-03-19T13:27:33.345Z,5.50
2019-03-19T13:30:01.479Z,4.40
2019-03-19T13:32:29.517Z,5.23
2019-03-19T13:34:57.355Z,9.03
2019-03-19T13:37:25.384Z,5.93
2019-03-19T13:39:53.497Z,6.20
2019-03-19T13:42:21.681Z,6.33
2019-03-19T13:44:49.620Z,4.23
2019-03-19T13:47:17.745Z,4.30
2019-03-19T13:49:45.805Z,4.60
2019-03-19T13:52:13.923Z,5.90
2019-03-19T13:54:41.973Z,6.03
2019-03-19T13:57:10.079Z,7.23
2019-03-19T13:59:38.183Z,6.03
2019-03-19T14:02:06.281Z,5.17
2019-03-19T14:04:34.233Z,5.87
2019-03-19T14:07:02.277Z,7.63
2019-03-19T14:09:30.504Z,3.47
2019-03-19T14:12:00.868Z,4.57
2019-03-19T14:14:29.065Z,4.27
2019-03-19T14:16:57.227Z,9.83
2019-03-19T14:19:25.232Z,7.67
2019-03-19T14:21:53.319Z,7.70
2019-03-19T14:24:21.404Z,4.00
2019-03-19T14:26:50.476Z,3.77
2019-03-19T14:29:18.726Z,4.60
2019-03-19T14:31:46.731Z,5.37
2019-03-19T14:34:15.395Z,3.83
2019-03-19T14:36:43.322Z,6.53
2019-03-19T14:39:11.414Z,6.80
2019-03-19T14:41:39.547Z,5.33
2019-03-19T14:44:08.100Z,7.33
2019-03-19T14:46:36.309Z,3.33
2019-03-19T14:49:04.535Z,6.67
2019-03-19T14:51:32.510Z,6.47
2019-03-19T14:54:00.730Z,5.23
2019-03-19T14:56:28.575Z,11.07
2019-03-19T14:58:56.668Z,6.13
2019-03-19T15:01:24.696Z,5.53
2019-03-19T15:03:52.844Z,4.97
2019-03-19T15:06:20.809Z,7.80
2019-03-19T15:08:48.894Z,7.00
2019-03-19T15:11:17.318Z,7.20
2019-03-19T15:13:45.375Z,8.77
2019-03-19T15:16:13.468Z,7.43
2019-03-19T15:18:42.128Z,9.00
2019-03-19T15:21:10.192Z,6.83
2019-03-19T15:23:38.337Z,6.93
2019-03-19T15:26:06.482Z,5.00
2019-03-19T15:28:34.691Z,10.30
2019-03-19T15:31:02.804Z,9.43
2019-03-19T15:33:30.920Z,9.17
2019-03-19T15:35:59.932Z,12.50
2019-03-19T15:38:28.128Z,9.07
2019-03-19T15:40:56.098Z,9.77
2019-03-19T15:43:25.055Z,14.47
2019-03-19T15:45:52.993Z,9.47
2019-03-19T15:48:20.981Z,7.90
2019-03-19T15:50:48.927Z,9.17
2019-03-19T15:53:16.906Z,8.97
2019-03-19T15:55:45.473Z,11.27
2019-03-19T15:58:13.330Z,17.93
2019-03-19T16:00:41.541Z,25.27
2019-03-19T16:03:09.597Z,17.07
2019-03-19T16:05:37.753Z,17.00
2019-03-19T16:08:05.837Z,10.33
2019-03-19T16:10:33.939Z,9.90
2019-03-19T16:13:02.023Z,11.97
2019-03-19T16:15:30.339Z,13.90
2019-03-19T16:17:58.375Z,13.20
2019-03-19T16:20:26.476Z,11.17
2019-03-19T16:22:54.550Z,12.10
2019-03-19T16:25:22.666Z,11.27
2019-03-19T16:27:50.599Z,15.17
2019-03-19T16:30:18.704Z,13.77
2019-03-19T16:32:46.821Z,11.83
2019-03-19T16:35:15.690Z,5.90
2019-03-19T16:37:43.710Z,8.80
2019-03-19T16:40:14.577Z,4.37
2019-03-19T16:42:42.694Z,5.83
2019-03-19T16:45:10.827Z,8.40
2019-03-19T16:47:38.843Z,9.00
2019-03-19T16:50:07.659Z,8.50
2019-03-19T16:52:35.618Z,10.73
2019-03-19T16:55:05.119Z,7.23
2019-03-19T16:57:33.178Z,8.87
2019-03-19T17:00:01.056Z,9.90
2019-03-19T17:02:29.075Z,8.67
2019-03-19T17:04:57.245Z,7.83
2019-03-19T17:07:25.284Z,9.47
2019-03-19T17:09:53.375Z,10.57
2019-03-19T17:12:21.347Z,9.30
2019-03-19T17:14:49.447Z,10.00
2019-03-19T17:17:17.511Z,7.73
2019-03-19T17:19:45.769Z,10.50
2019-03-19T17:22:13.803Z,25.23
2019-03-19T17:24:41.863Z,18.40
2019-03-19T17:27:09.905Z,19.33
2019-03-19T17:29:38.192Z,18.97
2019-03-19T17:32:12.846Z,11.73
2019-03-19T17:34:36.185Z,23.07
2019-03-19T17:37:04.252Z,23.53
2019-03-19T17:39:32.246Z,14.60
2019-03-19T17:42:01.015Z,18.97
2019-03-19T17:44:29.133Z,13.20
2019-03-19T17:46:57.049Z,15.83
2019-03-19T17:49:25.032Z,10.97
2019-03-19T17:51:53.127Z,10.83
2019-03-19T17:54:21.126Z,14.00
2019-03-19T17:56:49.150Z,19.17
2019-03-19T17:59:17.147Z,16.47
2019-03-19T18:01:45.638Z,13.90
2019-03-19T18:04:13.651Z,13.10
2019-03-19T18:06:43.154Z,14.20
2019-03-19T18:09:11.477Z,15.67
2019-03-19T18:11:39.399Z,11.87
2019-03-19T18:14:08.076Z,10.30
2019-03-19T18:16:36.214Z,15.10
2019-03-19T18:19:04.382Z,11.63
2019-03-19T18:21:32.479Z,21.50
2019-03-19T18:24:00.545Z,10.10
2019-03-19T18:26:28.993Z,14.90
2019-03-19T18:28:57.036Z,16.63
2019-03-19T18:31:26.487Z,16.53
2019-03-19T18:33:54.571Z,16.87
2019-03-19T18:36:22.810Z,21.23
2019-03-19T18:38:50.875Z,13.07
2019-03-19T18:41:18.993Z,18.07
2019-03-19T18:43:47.278Z,15.63
2019-03-19T18:46:15.343Z,21.93
2019-03-19T18:48:43.314Z,21.90
2019-03-19T18:51:11.302Z,28.00
2019-03-19T18:53:46.161Z,27.87
2019-03-19T18:56:14.338Z,35.60
2019-03-19T18:58:42.300Z,42.67
2019-03-19T19:01:10.412Z,42.03
2019-03-19T19:03:40.246Z,42.10
2019-03-19T19:06:08.257Z,47.97
2019-03-19T19:08:37.153Z,40.00
2019-03-19T19:11:05.625Z,48.37
2019-03-19T19:13:33.843Z,43.00
2019-03-19T19:16:01.974Z,42.00
2019-03-19T19:18:31.086Z,51.50
2019-03-19T19:20:59.082Z,46.90
2019-03-19T19:23:27.140Z,51.37
2019-03-19T19:25:55.142Z,50.67
2019-03-19T19:28:23.243Z,43.30
2019-03-19T19:30:51.300Z,42.87
2019-03-19T19:33:20.372Z,48.40
2019-03-19T19:35:48.436Z,43.65
2019-03-19T19:38:16.334Z,42.30
2019-03-19T19:40:44.510Z,203.50
2019-03-19T19:43:12.544Z,379.57
2019-03-19T19:45:40.517Z,197.30
2019-03-19T19:48:08.800Z,73.37
2019-03-19T19:50:37.036Z,43.27
2019-03-19T19:53:05.244Z,49.27
2019-03-19T19:55:33.218Z,43.25
2019-03-19T19:58:01.405Z,49.77
2019-03-19T20:00:29.489Z,42.97
2019-03-19T20:02:57.622Z,34.50
2019-03-19T20:05:25.466Z,49.13
2019-03-19T20:07:53.599Z,38.40
2019-03-19T20:10:21.703Z,35.75
2019-03-19T20:12:49.825Z,193.13
2019-03-19T20:15:17.980Z,74.00
2019-03-19T20:17:46.088Z,53.33
2019-03-19T20:20:15.618Z,42.47
2019-03-19T20:22:44.858Z,48.73
2019-03-19T20:25:13.278Z,40.08
2019-03-19T20:27:41.380Z,41.60
2019-03-19T20:30:12.673Z,52.90
2019-03-19T20:32:40.842Z,49.50
2019-03-19T20:35:09.392Z,48.68
2019-03-19T20:37:37.518Z,51.83
2019-03-19T20:40:06.293Z,55.52
2019-03-19T20:42:34.333Z,55.67
2019-03-19T20:45:02.452Z,53.80
2019-03-19T20:47:30.481Z,49.75
2019-03-19T20:49:58.438Z,45.40
2019-03-19T20:52:26.473Z,46.37
2019-03-19T20:54:54.302Z,44.43
2019-03-19T20:57:25.669Z,45.53
2019-03-19T20:59:53.822Z,40.95
2019-03-19T21:02:21.844Z,41.93
2019-03-19T21:04:49.911Z,41.95
2019-03-19T21:07:17.987Z,46.92
2019-03-19T21:09:46.205Z,42.55
2019-03-19T21:12:14.364Z,41.33
2019-03-19T21:14:43.156Z,56.13
2019-03-19T21:17:12.155Z,60.92
2019-03-19T21:19:40.102Z,51.05
2019-03-19T21:22:09.172Z,45.92
2019-03-19T21:24:37.251Z,44.20
2019-03-19T21:27:05.449Z,57.48
2019-03-19T21:29:33.544Z,50.05
2019-03-19T21:32:01.791Z,56.75
2019-03-19T21:34:29.867Z,55.63
2019-03-19T21:36:58.584Z,44.65
2019-03-19T21:39:26.592Z,43.60
2019-03-19T21:41:54.955Z,48.92
2019-03-19T21:44:23.652Z,49.70
2019-03-19T21:46:52.161Z,50.60
2019-03-19T21:49:20.168Z,46.95
2019-03-19T21:51:48.229Z,47.43
2019-03-19T21:54:16.470Z,47.20
2019-03-19T21:56:44.410Z,46.25
2019-03-19T21:59:12.609Z,44.27
2019-03-19T22:01:40.740Z,41.28
2019-03-19T22:04:08.744Z,45.08
2019-03-19T22:06:36.676Z,54.25
2019-03-19T22:09:06.286Z,54.42
2019-03-19T22:11:34.238Z,49.77
2019-03-19T22:14:02.354Z,53.35
2019-03-19T22:16:30.394Z,50.92
2019-03-19T22:18:58.408Z,58.17
2019-03-19T22:21:26.466Z,57.40
2019-03-19T22:23:54.486Z,53.45
2019-03-19T22:26:22.552Z,58.17
2019-03-19T22:28:50.715Z,53.90
2019-03-19T22:31:18.659Z,51.90
2019-03-19T22:33:46.832Z,49.00
2019-03-19T22:36:14.859Z,56.23
2019-03-19T22:38:42.944Z,50.78
2019-03-19T22:41:10.857Z,52.58
2019-03-19T22:43:39.059Z,57.83
2019-03-19T22:46:07.086Z,66.12
2019-03-19T22:48:35.295Z,64.87
2019-03-19T22:51:03.413Z,63.63
2019-03-19T22:53:32.115Z,64.67
2019-03-19T22:56:00.151Z,64.25
2019-03-19T22:58:28.259Z,60.92
2019-03-19T23:00:57.744Z,64.75
2019-03-19T23:03:25.940Z,61.42
2019-03-19T23:05:53.876Z,66.40
2019-03-19T23:08:21.953Z,73.67
2019-03-19T23:10:50.026Z,62.25
2019-03-19T23:13:18.146Z,65.45
2019-03-19T23:15:46.073Z,57.98
2019-03-19T23:18:14.208Z,67.08
2019-03-19T23:20:43.296Z,62.30
2019-03-19T23:23:11.507Z,65.75
2019-03-19T23:25:39.570Z,58.78
2019-03-19T23:28:07.773Z,65.45
2019-03-19T23:30:35.857Z,65.57
2019-03-19T23:33:04.871Z,64.80
2019-03-19T23:35:33.043Z,65.95
2019-03-19T23:38:01.103Z,66.95
2019-03-19T23:40:29.217Z,66.05
2019-03-19T23:42:57.251Z,66.00
2019-03-19T23:45:25.386Z,69.05
2019-03-19T23:47:53.433Z,67.60
2019-03-19T23:50:21.522Z,70.05
2019-03-19T23:52:49.556Z,59.88
2019-03-19T23:55:17.746Z,66.07
2019-03-19T23:57:45.755Z,69.12
